sensor_id;sensor_type;location;lat;lon;timestamp;P1;durP1;ratioP1;P2;durP2;ratioP2
15408;SDS011;7803;48.130;13.788;2022-11-30T00:01:33;13.77;;;12.43;;
15408;SDS011;7803;48.130;13.788;2022-11-30T00:04:35;13.98;;;12.57;;
15408;SDS011;7803;48.130;13.788;2022-11-30T00:07:37;14.35;;;12.95;;
15408;SDS011;7803;48.130;13.788;2022-11-30T00:10:40;14.55;;;13.07;;
15408;SDS011;7803;48.130;13.788;2022-11-30T00:13:43;14.15;;;12.75;;
15408;SDS011;7803;48.130;13.788;2022-11-30T00:16:47;14.10;;;12.70;;
15408;SDS011;7803;48.130;13.788;2022-11-30T00:19:49;13.73;;;12.30;;
15408;SDS011;7803;48.130;13.788;2022-11-30T00:22:51;13.85;;;12.43;;
15408;SDS011;7803;48.130;13.788;2022-11-30T00:25:55;14.05;;;12.68;;
15408;SDS011;7803;48.130;13.788;2022-11-30T00:29:01;13.32;;;12.02;;
15408;SDS011;7803;48.130;13.788;2022-11-30T00:32:04;13.00;;;11.75;;
15408;SDS011;7803;48.130;13.788;2022-11-30T00:35:06;13.52;;;12.23;;
15408;SDS011;7803;48.130;13.788;2022-11-30T00:38:09;13.80;;;12.40;;
15408;SDS011;7803;48.130;13.788;2022-11-30T00:41:11;13.13;;;11.80;;
15408;SDS011;7803;48.130;13.788;2022-11-30T00:44:13;13.45;;;12.15;;
15408;SDS011;7803;48.130;13.788;2022-11-30T00:47:16;13.10;;;11.77;;
15408;SDS011;7803;48.130;13.788;2022-11-30T00:50:18;13.10;;;11.80;;
15408;SDS011;7803;48.130;13.788;2022-11-30T00:53:21;13.52;;;12.13;;
15408;SDS011;7803;48.130;13.788;2022-11-30T00:56:23;12.98;;;11.60;;
15408;SDS011;7803;48.130;13.788;2022-11-30T00:59:25;12.68;;;11.38;;
15408;SDS011;7803;48.130;13.788;2022-11-30T01:02:28;13.23;;;11.93;;
15408;SDS011;7803;48.130;13.788;2022-11-30T01:05:31;12.80;;;11.55;;
15408;SDS011;7803;48.130;13.788;2022-11-30T01:08:33;12.80;;;11.60;;
15408;SDS011;7803;48.130;13.788;2022-11-30T01:11:36;12.88;;;11.68;;
15408;SDS011;7803;48.130;13.788;2022-11-30T01:14:38;12.93;;;11.57;;
15408;SDS011;7803;48.130;13.788;2022-11-30T01:17:41;13.48;;;12.07;;
15408;SDS011;7803;48.130;13.788;2022-11-30T01:20:43;12.98;;;11.68;;
15408;SDS011;7803;48.130;13.788;2022-11-30T01:23:45;13.38;;;12.07;;
15408;SDS011;7803;48.130;13.788;2022-11-30T01:26:48;12.98;;;11.68;;
15408;SDS011;7803;48.130;13.788;2022-11-30T01:29:50;12.02;;;10.93;;
15408;SDS011;7803;48.130;13.788;2022-11-30T01:32:53;12.13;;;10.93;;
15408;SDS011;7803;48.130;13.788;2022-11-30T01:35:59;12.20;;;11.02;;
15408;SDS011;7803;48.130;13.788;2022-11-30T01:39:01;12.10;;;10.90;;
15408;SDS011;7803;48.130;13.788;2022-11-30T01:42:11;13.48;;;12.18;;
15408;SDS011;7803;48.130;13.788;2022-11-30T01:45:14;12.60;;;11.40;;
15408;SDS011;7803;48.130;13.788;2022-11-30T01:48:18;12.40;;;11.10;;
15408;SDS011;7803;48.130;13.788;2022-11-30T01:51:20;12.43;;;11.23;;
15408;SDS011;7803;48.130;13.788;2022-11-30T01:54:23;11.68;;;10.57;;
15408;SDS011;7803;48.130;13.788;2022-11-30T01:57:28;12.43;;;11.23;;
15408;SDS011;7803;48.130;13.788;2022-11-30T02:00:35;11.57;;;10.45;;
15408;SDS011;7803;48.130;13.788;2022-11-30T02:03:40;11.77;;;10.68;;
15408;SDS011;7803;48.130;13.788;2022-11-30T02:06:49;12.27;;;11.07;;
15408;SDS011;7803;48.130;13.788;2022-11-30T02:09:52;12.18;;;10.90;;
15408;SDS011;7803;48.130;13.788;2022-11-30T02:13:04;11.18;;;10.18;;
15408;SDS011;7803;48.130;13.788;2022-11-30T02:16:18;14.38;;;11.52;;
15408;SDS011;7803;48.130;13.788;2022-11-30T02:19:41;11.23;;;10.13;;
15408;SDS011;7803;48.130;13.788;2022-11-30T02:23:19;11.18;;;10.18;;
15408;SDS011;7803;48.130;13.788;2022-11-30T02:27:02;11.35;;;10.25;;
15408;SDS011;7803;48.130;13.788;2022-11-30T02:30:15;10.98;;;9.98;;
15408;SDS011;7803;48.130;13.788;2022-11-30T02:33:21;11.40;;;10.30;;
15408;SDS011;7803;48.130;13.788;2022-11-30T02:36:28;11.50;;;10.35;;
15408;SDS011;7803;48.130;13.788;2022-11-30T02:39:30;12.00;;;10.82;;
15408;SDS011;7803;48.130;13.788;2022-11-30T02:42:33;11.30;;;10.20;;
15408;SDS011;7803;48.130;13.788;2022-11-30T02:45:37;10.93;;;9.93;;
15408;SDS011;7803;48.130;13.788;2022-11-30T02:48:45;11.32;;;10.18;;
15408;SDS011;7803;48.130;13.788;2022-11-30T02:51:53;10.90;;;9.90;;
15408;SDS011;7803;48.130;13.788;2022-11-30T02:54:59;10.82;;;9.82;;
15408;SDS011;7803;48.130;13.788;2022-11-30T02:58:02;10.85;;;9.85;;
15408;SDS011;7803;48.130;13.788;2022-11-30T03:01:06;11.55;;;10.48;;
15408;SDS011;7803;48.130;13.788;2022-11-30T03:04:08;10.70;;;9.70;;
15408;SDS011;7803;48.130;13.788;2022-11-30T03:07:10;11.23;;;10.15;;
15408;SDS011;7803;48.130;13.788;2022-11-30T03:10:12;10.90;;;9.82;;
15408;SDS011;7803;48.130;13.788;2022-11-30T03:13:14;11.00;;;9.93;;
15408;SDS011;7803;48.130;13.788;2022-11-30T03:16:17;10.93;;;9.93;;
15408;SDS011;7803;48.130;13.788;2022-11-30T03:19:19;11.20;;;10.10;;
15408;SDS011;7803;48.130;13.788;2022-11-30T03:22:21;10.35;;;9.35;;
15408;SDS011;7803;48.130;13.788;2022-11-30T03:25:23;11.05;;;9.95;;
15408;SDS011;7803;48.130;13.788;2022-11-30T03:28:25;10.88;;;9.88;;
15408;SDS011;7803;48.130;13.788;2022-11-30T03:31:29;10.65;;;9.65;;
15408;SDS011;7803;48.130;13.788;2022-11-30T03:34:31;10.75;;;9.70;;
15408;SDS011;7803;48.130;13.788;2022-11-30T03:37:33;10.65;;;9.57;;
15408;SDS011;7803;48.130;13.788;2022-11-30T03:40:35;10.23;;;9.23;;
15408;SDS011;7803;48.130;13.788;2022-11-30T03:43:37;10.70;;;9.70;;
15408;SDS011;7803;48.130;13.788;2022-11-30T03:46:41;10.15;;;9.23;;
15408;SDS011;7803;48.130;13.788;2022-11-30T03:49:43;10.70;;;9.70;;
15408;SDS011;7803;48.130;13.788;2022-11-30T03:52:45;10.32;;;9.32;;
15408;SDS011;7803;48.130;13.788;2022-11-30T03:55:50;10.25;;;9.30;;
15408;SDS011;7803;48.130;13.788;2022-11-30T03:58:53;9.52;;;8.63;;
15408;SDS011;7803;48.130;13.788;2022-11-30T04:01:57;10.32;;;9.43;;
15408;SDS011;7803;48.130;13.788;2022-11-30T04:04:59;10.32;;;9.32;;
15408;SDS011;7803;48.130;13.788;2022-11-30T04:08:01;10.45;;;9.45;;
15408;SDS011;7803;48.130;13.788;2022-11-30T04:11:03;10.23;;;9.30;;
15408;SDS011;7803;48.130;13.788;2022-11-30T04:14:06;9.98;;;9.05;;
15408;SDS011;7803;48.130;13.788;2022-11-30T04:17:10;11.40;;;10.02;;
15408;SDS011;7803;48.130;13.788;2022-11-30T04:20:12;9.57;;;8.68;;
15408;SDS011;7803;48.130;13.788;2022-11-30T04:23:14;9.65;;;8.75;;
15408;SDS011;7803;48.130;13.788;2022-11-30T04:26:16;9.18;;;8.38;;
15408;SDS011;7803;48.130;13.788;2022-11-30T04:29:18;9.65;;;8.75;;
15408;SDS011;7803;48.130;13.788;2022-11-30T04:32:22;9.35;;;8.45;;
15408;SDS011;7803;48.130;13.788;2022-11-30T04:35:24;9.10;;;8.30;;
15408;SDS011;7803;48.130;13.788;2022-11-30T04:38:26;9.30;;;8.35;;
15408;SDS011;7803;48.130;13.788;2022-11-30T04:41:28;8.90;;;8.10;;
15408;SDS011;7803;48.130;13.788;2022-11-30T04:44:30;9.40;;;8.50;;
15408;SDS011;7803;48.130;13.788;2022-11-30T04:47:34;9.23;;;8.35;;
15408;SDS011;7803;48.130;13.788;2022-11-30T04:50:36;8.45;;;7.70;;
15408;SDS011;7803;48.130;13.788;2022-11-30T04:53:38;8.63;;;7.82;;
15408;SDS011;7803;48.130;13.788;2022-11-30T04:56:40;9.10;;;8.20;;
15408;SDS011;7803;48.130;13.788;2022-11-30T04:59:42;8.70;;;7.82;;
15408;SDS011;7803;48.130;13.788;2022-11-30T05:02:46;8.75;;;7.95;;
15408;SDS011;7803;48.130;13.788;2022-11-30T05:05:48;8.90;;;8.00;;
15408;SDS011;7803;48.130;13.788;2022-11-30T05:08:50;8.90;;;8.10;;
15408;SDS011;7803;48.130;13.788;2022-11-30T05:11:52;10.02;;;8.10;;
15408;SDS011;7803;48.130;13.788;2022-11-30T05:14:54;8.40;;;7.70;;
15408;SDS011;7803;48.130;13.788;2022-11-30T05:17:58;8.90;;;8.00;;
15408;SDS011;7803;48.130;13.788;2022-11-30T05:21:00;8.60;;;7.80;;
15408;SDS011;7803;48.130;13.788;2022-11-30T05:24:03;8.90;;;8.10;;
15408;SDS011;7803;48.130;13.788;2022-11-30T05:27:05;8.70;;;7.80;;
15408;SDS011;7803;48.130;13.788;2022-11-30T05:30:08;8.60;;;7.80;;
15408;SDS011;7803;48.130;13.788;2022-11-30T05:33:13;8.40;;;7.60;;
15408;SDS011;7803;48.130;13.788;2022-11-30T05:36:15;8.60;;;7.80;;
15408;SDS011;7803;48.130;13.788;2022-11-30T05:39:17;8.57;;;7.78;;
15408;SDS011;7803;48.130;13.788;2022-11-30T05:42:19;8.40;;;7.60;;
15408;SDS011;7803;48.130;13.788;2022-11-30T05:45:21;7.60;;;6.90;;
15408;SDS011;7803;48.130;13.788;2022-11-30T05:48:25;8.65;;;7.85;;
15408;SDS011;7803;48.130;13.788;2022-11-30T05:51:27;8.40;;;7.50;;
15408;SDS011;7803;48.130;13.788;2022-11-30T05:54:29;8.23;;;7.40;;
15408;SDS011;7803;48.130;13.788;2022-11-30T05:57:33;8.77;;;7.43;;
15408;SDS011;7803;48.130;13.788;2022-11-30T06:00:36;17.35;;;7.32;;
15408;SDS011;7803;48.130;13.788;2022-11-30T06:03:39;9.73;;;7.57;;
15408;SDS011;7803;48.130;13.788;2022-11-30T06:06:41;8.07;;;7.28;;
15408;SDS011;7803;48.130;13.788;2022-11-30T06:09:43;9.68;;;7.68;;
15408;SDS011;7803;48.130;13.788;2022-11-30T06:12:45;8.98;;;6.80;;
15408;SDS011;7803;48.130;13.788;2022-11-30T06:15:47;8.00;;;7.07;;
15408;SDS011;7803;48.130;13.788;2022-11-30T06:18:51;8.80;;;7.65;;
15408;SDS011;7803;48.130;13.788;2022-11-30T06:21:53;8.70;;;7.30;;
15408;SDS011;7803;48.130;13.788;2022-11-30T06:24:55;7.97;;;7.18;;
15408;SDS011;7803;48.130;13.788;2022-11-30T06:27:57;9.25;;;7.25;;
15408;SDS011;7803;48.130;13.788;2022-11-30T06:30:59;8.10;;;7.30;;
15408;SDS011;7803;48.130;13.788;2022-11-30T06:34:03;8.05;;;7.18;;
15408;SDS011;7803;48.130;13.788;2022-11-30T06:37:05;9.60;;;7.22;;
15408;SDS011;7803;48.130;13.788;2022-11-30T06:40:08;8.95;;;7.15;;
15408;SDS011;7803;48.130;13.788;2022-11-30T06:43:11;7.18;;;6.47;;
15408;SDS011;7803;48.130;13.788;2022-11-30T06:46:13;7.70;;;6.82;;
15408;SDS011;7803;48.130;13.788;2022-11-30T06:49:17;8.35;;;7.32;;
15408;SDS011;7803;48.130;13.788;2022-11-30T06:52:19;9.68;;;7.40;;
15408;SDS011;7803;48.130;13.788;2022-11-30T06:55:21;7.35;;;6.65;;
15408;SDS011;7803;48.130;13.788;2022-11-30T06:58:23;7.65;;;6.95;;
15408;SDS011;7803;48.130;13.788;2022-11-30T07:01:25;7.13;;;6.43;;
15408;SDS011;7803;48.130;13.788;2022-11-30T07:04:28;7.45;;;6.75;;
15408;SDS011;7803;48.130;13.788;2022-11-30T07:07:31;7.90;;;6.47;;
15408;SDS011;7803;48.130;13.788;2022-11-30T07:10:33;7.38;;;6.57;;
15408;SDS011;7803;48.130;13.788;2022-11-30T07:13:38;7.63;;;6.93;;
15408;SDS011;7803;48.130;13.788;2022-11-30T07:16:40;8.18;;;7.38;;
15408;SDS011;7803;48.130;13.788;2022-11-30T07:19:44;9.00;;;7.30;;
15408;SDS011;7803;48.130;13.788;2022-11-30T07:22:46;6.80;;;6.20;;
15408;SDS011;7803;48.130;13.788;2022-11-30T07:25:48;7.25;;;6.55;;
15408;SDS011;7803;48.130;13.788;2022-11-30T07:29:05;7.40;;;6.70;;
15408;SDS011;7803;48.130;13.788;2022-11-30T07:32:07;6.60;;;5.93;;
15408;SDS011;7803;48.130;13.788;2022-11-30T07:35:11;7.22;;;6.53;;
15408;SDS011;7803;48.130;13.788;2022-11-30T07:38:13;8.00;;;6.82;;
15408;SDS011;7803;48.130;13.788;2022-11-30T07:41:15;7.13;;;6.43;;
15408;SDS011;7803;48.130;13.788;2022-11-30T07:44:17;7.18;;;6.47;;
15408;SDS011;7803;48.130;13.788;2022-11-30T07:47:19;6.57;;;5.97;;
15408;SDS011;7803;48.130;13.788;2022-11-30T07:50:22;7.03;;;6.35;;
15408;SDS011;7803;48.130;13.788;2022-11-30T07:53:24;7.13;;;6.43;;
15408;SDS011;7803;48.130;13.788;2022-11-30T07:56:26;6.93;;;6.32;;
15408;SDS011;7803;48.130;13.788;2022-11-30T07:59:29;6.88;;;6.28;;
15408;SDS011;7803;48.130;13.788;2022-11-30T08:02:31;7.32;;;6.63;;
15408;SDS011;7803;48.130;13.788;2022-11-30T08:05:34;6.70;;;6.10;;
15408;SDS011;7803;48.130;13.788;2022-11-30T08:08:37;7.38;;;6.57;;
15408;SDS011;7803;48.130;13.788;2022-11-30T08:11:40;6.95;;;6.13;;
15408;SDS011;7803;48.130;13.788;2022-11-30T08:14:42;6.72;;;6.13;;
15408;SDS011;7803;48.130;13.788;2022-11-30T08:17:44;7.15;;;6.10;;
15408;SDS011;7803;48.130;13.788;2022-11-30T08:20:56;7.30;;;6.60;;
15408;SDS011;7803;48.130;13.788;2022-11-30T08:23:59;7.28;;;6.57;;
15408;SDS011;7803;48.130;13.788;2022-11-30T08:27:01;6.55;;;5.95;;
15408;SDS011;7803;48.130;13.788;2022-11-30T08:30:03;6.45;;;5.85;;
15408;SDS011;7803;48.130;13.788;2022-11-30T08:33:06;6.57;;;5.95;;
15408;SDS011;7803;48.130;13.788;2022-11-30T08:36:10;6.75;;;6.05;;
15408;SDS011;7803;48.130;13.788;2022-11-30T08:39:13;7.60;;;6.85;;
15408;SDS011;7803;48.130;13.788;2022-11-30T08:42:15;7.05;;;6.35;;
15408;SDS011;7803;48.130;13.788;2022-11-30T08:45:17;6.97;;;6.28;;
15408;SDS011;7803;48.130;13.788;2022-11-30T08:48:19;7.15;;;6.50;;
15408;SDS011;7803;48.130;13.788;2022-11-30T08:51:23;6.70;;;6.10;;
15408;SDS011;7803;48.130;13.788;2022-11-30T08:54:25;7.20;;;6.50;;
15408;SDS011;7803;48.130;13.788;2022-11-30T08:57:27;7.13;;;6.50;;
15408;SDS011;7803;48.130;13.788;2022-11-30T09:00:30;7.22;;;6.53;;
15408;SDS011;7803;48.130;13.788;2022-11-30T09:03:32;7.30;;;6.60;;
15408;SDS011;7803;48.130;13.788;2022-11-30T09:06:35;7.25;;;6.55;;
15408;SDS011;7803;48.130;13.788;2022-11-30T09:09:38;7.90;;;6.88;;
15408;SDS011;7803;48.130;13.788;2022-11-30T09:12:41;6.80;;;6.20;;
15408;SDS011;7803;48.130;13.788;2022-11-30T09:15:43;6.72;;;6.13;;
15408;SDS011;7803;48.130;13.788;2022-11-30T09:18:45;6.90;;;6.20;;
15408;SDS011;7803;48.130;13.788;2022-11-30T09:21:49;6.88;;;6.25;;
15408;SDS011;7803;48.130;13.788;2022-11-30T09:24:51;6.85;;;6.25;;
15408;SDS011;7803;48.130;13.788;2022-11-30T09:27:53;6.85;;;6.15;;
15408;SDS011;7803;48.130;13.788;2022-11-30T09:30:59;6.90;;;6.30;;
15408;SDS011;7803;48.130;13.788;2022-11-30T09:34:02;6.55;;;5.95;;
15408;SDS011;7803;48.130;13.788;2022-11-30T09:37:05;7.88;;;6.80;;
15408;SDS011;7803;48.130;13.788;2022-11-30T09:40:08;6.90;;;6.30;;
15408;SDS011;7803;48.130;13.788;2022-11-30T09:43:14;6.43;;;5.90;;
15408;SDS011;7803;48.130;13.788;2022-11-30T09:46:23;6.88;;;6.18;;
15408;SDS011;7803;48.130;13.788;2022-11-30T09:49:29;6.65;;;6.00;;
15408;SDS011;7803;48.130;13.788;2022-11-30T09:52:37;6.80;;;6.20;;
15408;SDS011;7803;48.130;13.788;2022-11-30T09:55:42;6.60;;;6.00;;
15408;SDS011;7803;48.130;13.788;2022-11-30T09:58:45;6.85;;;6.25;;
15408;SDS011;7803;48.130;13.788;2022-11-30T10:01:48;7.35;;;6.50;;
15408;SDS011;7803;48.130;13.788;2022-11-30T10:04:50;7.55;;;6.25;;
15408;SDS011;7803;48.130;13.788;2022-11-30T10:07:58;7.18;;;6.47;;
15408;SDS011;7803;48.130;13.788;2022-11-30T10:11:19;6.75;;;6.15;;
15408;SDS011;7803;48.130;13.788;2022-11-30T10:18:27;7.00;;;6.35;;
15408;SDS011;7803;48.130;13.788;2022-11-30T10:21:40;6.70;;;6.10;;
15408;SDS011;7803;48.130;13.788;2022-11-30T10:24:58;6.97;;;6.30;;
15408;SDS011;7803;48.130;13.788;2022-11-30T10:28:15;6.53;;;5.93;;
15408;SDS011;7803;48.130;13.788;2022-11-30T10:31:19;6.80;;;6.20;;
15408;SDS011;7803;48.130;13.788;2022-11-30T10:34:29;7.25;;;6.55;;
15408;SDS011;7803;48.130;13.788;2022-11-30T10:37:35;6.90;;;6.20;;
15408;SDS011;7803;48.130;13.788;2022-11-30T10:40:42;6.57;;;5.97;;
15408;SDS011;7803;48.130;13.788;2022-11-30T10:43:48;6.88;;;6.22;;
15408;SDS011;7803;48.130;13.788;2022-11-30T10:46:56;6.40;;;5.80;;
15408;SDS011;7803;48.130;13.788;2022-11-30T10:50:00;7.10;;;6.20;;
15408;SDS011;7803;48.130;13.788;2022-11-30T10:53:04;7.28;;;6.55;;
15408;SDS011;7803;48.130;13.788;2022-11-30T10:56:08;7.18;;;6.43;;
15408;SDS011;7803;48.130;13.788;2022-11-30T10:59:15;6.47;;;5.85;;
15408;SDS011;7803;48.130;13.788;2022-11-30T11:02:33;6.80;;;6.20;;
15408;SDS011;7803;48.130;13.788;2022-11-30T11:05:38;6.63;;;6.03;;
15408;SDS011;7803;48.130;13.788;2022-11-30T11:08:40;6.80;;;6.10;;
15408;SDS011;7803;48.130;13.788;2022-11-30T11:11:45;8.77;;;7.10;;
15408;SDS011;7803;48.130;13.788;2022-11-30T11:15:01;6.38;;;5.88;;
15408;SDS011;7803;48.130;13.788;2022-11-30T11:18:19;6.40;;;5.90;;
15408;SDS011;7803;48.130;13.788;2022-11-30T11:21:23;6.65;;;6.05;;
15408;SDS011;7803;48.130;13.788;2022-11-30T11:24:25;6.85;;;6.18;;
15408;SDS011;7803;48.130;13.788;2022-11-30T11:27:30;6.28;;;5.68;;
15408;SDS011;7803;48.130;13.788;2022-11-30T11:30:34;7.30;;;6.60;;
15408;SDS011;7803;48.130;13.788;2022-11-30T11:33:37;7.40;;;6.65;;
15408;SDS011;7803;48.130;13.788;2022-11-30T11:37:02;7.20;;;6.47;;
15408;SDS011;7803;48.130;13.788;2022-11-30T11:40:12;7.10;;;6.45;;
15408;SDS011;7803;48.130;13.788;2022-11-30T11:43:17;6.97;;;6.28;;
15408;SDS011;7803;48.130;13.788;2022-11-30T11:46:19;7.10;;;6.50;;
15408;SDS011;7803;48.130;13.788;2022-11-30T11:49:22;6.97;;;6.28;;
15408;SDS011;7803;48.130;13.788;2022-11-30T11:52:26;6.53;;;5.93;;
15408;SDS011;7803;48.130;13.788;2022-11-30T11:55:28;6.55;;;6.03;;
15408;SDS011;7803;48.130;13.788;2022-11-30T11:58:34;6.93;;;6.28;;
15408;SDS011;7803;48.130;13.788;2022-11-30T12:01:44;6.75;;;6.15;;
15408;SDS011;7803;48.130;13.788;2022-11-30T12:04:50;6.57;;;5.95;;
15408;SDS011;7803;48.130;13.788;2022-11-30T12:07:58;6.68;;;6.07;;
15408;SDS011;7803;48.130;13.788;2022-11-30T12:11:08;7.10;;;6.40;;
15408;SDS011;7803;48.130;13.788;2022-11-30T12:14:16;6.38;;;5.78;;
15408;SDS011;7803;48.130;13.788;2022-11-30T12:17:30;7.00;;;6.30;;
15408;SDS011;7803;48.130;13.788;2022-11-30T12:20:46;7.32;;;6.63;;
15408;SDS011;7803;48.130;13.788;2022-11-30T12:24:01;6.93;;;6.22;;
15408;SDS011;7803;48.130;13.788;2022-11-30T12:27:15;7.05;;;6.35;;
15408;SDS011;7803;48.130;13.788;2022-11-30T12:30:24;7.35;;;6.65;;
15408;SDS011;7803;48.130;13.788;2022-11-30T12:33:34;6.95;;;6.25;;
15408;SDS011;7803;48.130;13.788;2022-11-30T12:36:49;7.07;;;6.38;;
15408;SDS011;7803;48.130;13.788;2022-11-30T12:40:02;6.57;;;5.90;;
15408;SDS011;7803;48.130;13.788;2022-11-30T12:43:19;6.50;;;5.90;;
15408;SDS011;7803;48.130;13.788;2022-11-30T12:46:33;6.70;;;6.10;;
15408;SDS011;7803;48.130;13.788;2022-11-30T12:49:45;6.78;;;6.18;;
15408;SDS011;7803;48.130;13.788;2022-11-30T12:52:57;6.43;;;5.75;;
15408;SDS011;7803;48.130;13.788;2022-11-30T12:56:10;6.78;;;6.10;;
15408;SDS011;7803;48.130;13.788;2022-11-30T12:59:24;6.97;;;6.28;;
15408;SDS011;7803;48.130;13.788;2022-11-30T13:02:40;7.32;;;6.63;;
15408;SDS011;7803;48.130;13.788;2022-11-30T13:06:04;6.22;;;5.63;;
15408;SDS011;7803;48.130;13.788;2022-11-30T13:09:16;6.90;;;6.30;;
15408;SDS011;7803;48.130;13.788;2022-11-30T13:12:26;7.13;;;6.43;;
15408;SDS011;7803;48.130;13.788;2022-11-30T13:15:35;6.78;;;6.07;;
15408;SDS011;7803;48.130;13.788;2022-11-30T13:18:40;6.57;;;5.97;;
15408;SDS011;7803;48.130;13.788;2022-11-30T13:21:43;6.38;;;5.82;;
15408;SDS011;7803;48.130;13.788;2022-11-30T13:24:54;7.07;;;6.47;;
15408;SDS011;7803;48.130;13.788;2022-11-30T13:28:03;6.57;;;5.97;;
15408;SDS011;7803;48.130;13.788;2022-11-30T13:31:16;6.90;;;6.30;;
15408;SDS011;7803;48.130;13.788;2022-11-30T13:34:25;6.55;;;5.95;;
15408;SDS011;7803;48.130;13.788;2022-11-30T13:37:28;6.55;;;5.95;;
15408;SDS011;7803;48.130;13.788;2022-11-30T13:40:32;6.80;;;6.20;;
15408;SDS011;7803;48.130;13.788;2022-11-30T13:43:34;6.85;;;6.25;;
15408;SDS011;7803;48.130;13.788;2022-11-30T13:46:46;7.13;;;6.15;;
15408;SDS011;7803;48.130;13.788;2022-11-30T13:49:54;6.68;;;6.07;;
15408;SDS011;7803;48.130;13.788;2022-11-30T13:53:04;6.68;;;6.00;;
15408;SDS011;7803;48.130;13.788;2022-11-30T13:59:35;6.50;;;5.90;;
15408;SDS011;7803;48.130;13.788;2022-11-30T14:02:49;6.45;;;5.85;;
15408;SDS011;7803;48.130;13.788;2022-11-30T14:05:55;7.10;;;6.43;;
15408;SDS011;7803;48.130;13.788;2022-11-30T14:08:57;6.32;;;5.72;;
15408;SDS011;7803;48.130;13.788;2022-11-30T14:12:04;6.65;;;6.05;;
15408;SDS011;7803;48.130;13.788;2022-11-30T14:15:51;6.45;;;5.85;;
15408;SDS011;7803;48.130;13.788;2022-11-30T14:18:56;7.38;;;6.40;;
15408;SDS011;7803;48.130;13.788;2022-11-30T14:21:59;6.38;;;5.78;;
15408;SDS011;7803;48.130;13.788;2022-11-30T14:25:03;6.22;;;5.65;;
15408;SDS011;7803;48.130;13.788;2022-11-30T14:28:13;6.57;;;5.97;;
15408;SDS011;7803;48.130;13.788;2022-11-30T14:31:20;6.30;;;5.70;;
15408;SDS011;7803;48.130;13.788;2022-11-30T14:34:25;6.30;;;5.70;;
15408;SDS011;7803;48.130;13.788;2022-11-30T14:37:34;6.47;;;5.85;;
15408;SDS011;7803;48.130;13.788;2022-11-30T14:40:48;6.57;;;5.93;;
15408;SDS011;7803;48.130;13.788;2022-11-30T14:44:00;6.93;;;6.22;;
15408;SDS011;7803;48.130;13.788;2022-11-30T14:47:11;6.25;;;5.65;;
15408;SDS011;7803;48.130;13.788;2022-11-30T14:50:19;6.72;;;6.13;;
15408;SDS011;7803;48.130;13.788;2022-11-30T14:53:31;6.45;;;5.85;;
15408;SDS011;7803;48.130;13.788;2022-11-30T14:56:45;6.55;;;5.95;;
15408;SDS011;7803;48.130;13.788;2022-11-30T14:59:49;6.57;;;5.97;;
15408;SDS011;7803;48.130;13.788;2022-11-30T15:02:53;6.30;;;5.72;;
15408;SDS011;7803;48.130;13.788;2022-11-30T15:05:56;6.03;;;5.53;;
15408;SDS011;7803;48.130;13.788;2022-11-30T15:09:01;5.80;;;5.30;;
15408;SDS011;7803;48.130;13.788;2022-11-30T15:12:04;6.53;;;5.90;;
15408;SDS011;7803;48.130;13.788;2022-11-30T15:15:14;5.80;;;5.30;;
15408;SDS011;7803;48.130;13.788;2022-11-30T15:18:18;6.20;;;5.60;;
15408;SDS011;7803;48.130;13.788;2022-11-30T15:21:22;5.88;;;5.38;;
15408;SDS011;7803;48.130;13.788;2022-11-30T15:24:27;6.38;;;5.78;;
15408;SDS011;7803;48.130;13.788;2022-11-30T15:27:29;6.53;;;5.93;;
15408;SDS011;7803;48.130;13.788;2022-11-30T15:30:32;6.22;;;5.63;;
15408;SDS011;7803;48.130;13.788;2022-11-30T15:33:39;5.80;;;5.30;;
15408;SDS011;7803;48.130;13.788;2022-11-30T15:36:43;6.30;;;5.70;;
15408;SDS011;7803;48.130;13.788;2022-11-30T15:39:48;7.10;;;6.13;;
15408;SDS011;7803;48.130;13.788;2022-11-30T15:42:54;6.80;;;5.97;;
15408;SDS011;7803;48.130;13.788;2022-11-30T15:45:57;5.78;;;5.28;;
15408;SDS011;7803;48.130;13.788;2022-11-30T15:49:03;6.30;;;5.60;;
15408;SDS011;7803;48.130;13.788;2022-11-30T15:52:14;5.82;;;5.32;;
15408;SDS011;7803;48.130;13.788;2022-11-30T15:58:58;6.45;;;5.82;;
15408;SDS011;7803;48.130;13.788;2022-11-30T16:02:01;5.90;;;5.40;;
15408;SDS011;7803;48.130;13.788;2022-11-30T16:05:23;6.15;;;5.55;;
15408;SDS011;7803;48.130;13.788;2022-11-30T16:08:26;10.27;;;8.02;;
15408;SDS011;7803;48.130;13.788;2022-11-30T16:11:31;9.75;;;8.73;;
15408;SDS011;7803;48.130;13.788;2022-11-30T16:14:34;9.00;;;6.70;;
15408;SDS011;7803;48.130;13.788;2022-11-30T16:17:36;8.13;;;6.45;;
15408;SDS011;7803;48.130;13.788;2022-11-30T16:20:39;7.28;;;6.57;;
15408;SDS011;7803;48.130;13.788;2022-11-30T16:23:41;7.05;;;6.35;;
15408;SDS011;7803;48.130;13.788;2022-11-30T16:26:45;7.22;;;6.40;;
15408;SDS011;7803;48.130;13.788;2022-11-30T16:29:47;7.22;;;5.72;;
15408;SDS011;7803;48.130;13.788;2022-11-30T16:32:52;6.57;;;5.97;;
15408;SDS011;7803;48.130;13.788;2022-11-30T16:35:54;6.35;;;5.68;;
15408;SDS011;7803;48.130;13.788;2022-11-30T16:39:01;6.35;;;5.75;;
15408;SDS011;7803;48.130;13.788;2022-11-30T16:42:07;6.32;;;5.70;;
15408;SDS011;7803;48.130;13.788;2022-11-30T16:45:13;8.02;;;6.13;;
15408;SDS011;7803;48.130;13.788;2022-11-30T16:48:18;7.28;;;5.90;;
15408;SDS011;7803;48.130;13.788;2022-11-30T16:51:21;7.63;;;5.90;;
15408;SDS011;7803;48.130;13.788;2022-11-30T16:54:26;6.03;;;5.43;;
15408;SDS011;7803;48.130;13.788;2022-11-30T16:57:31;7.65;;;5.90;;
15408;SDS011;7803;48.130;13.788;2022-11-30T17:00:34;6.32;;;5.70;;
15408;SDS011;7803;48.130;13.788;2022-11-30T17:03:40;6.28;;;5.68;;
15408;SDS011;7803;48.130;13.788;2022-11-30T17:06:45;6.18;;;5.60;;
15408;SDS011;7803;48.130;13.788;2022-11-30T17:09:49;6.25;;;5.65;;
15408;SDS011;7803;48.130;13.788;2022-11-30T17:12:56;6.03;;;5.43;;
15408;SDS011;7803;48.130;13.788;2022-11-30T17:15:58;6.72;;;5.57;;
15408;SDS011;7803;48.130;13.788;2022-11-30T17:19:01;6.05;;;5.38;;
15408;SDS011;7803;48.130;13.788;2022-11-30T17:22:04;6.25;;;5.63;;
15408;SDS011;7803;48.130;13.788;2022-11-30T17:25:10;7.07;;;5.60;;
15408;SDS011;7803;48.130;13.788;2022-11-30T17:28:17;6.68;;;5.97;;
15408;SDS011;7803;48.130;13.788;2022-11-30T17:31:20;6.43;;;5.82;;
15408;SDS011;7803;48.130;13.788;2022-11-30T17:34:22;6.40;;;5.72;;
15408;SDS011;7803;48.130;13.788;2022-11-30T17:37:25;6.70;;;6.05;;
15408;SDS011;7803;48.130;13.788;2022-11-30T17:40:29;5.95;;;5.25;;
15408;SDS011;7803;48.130;13.788;2022-11-30T17:43:34;7.10;;;5.57;;
15408;SDS011;7803;48.130;13.788;2022-11-30T17:46:37;6.05;;;5.45;;
15408;SDS011;7803;48.130;13.788;2022-11-30T17:49:40;6.53;;;5.75;;
15408;SDS011;7803;48.130;13.788;2022-11-30T17:52:42;6.70;;;6.00;;
15408;SDS011;7803;48.130;13.788;2022-11-30T17:55:46;6.55;;;5.80;;
15408;SDS011;7803;48.130;13.788;2022-11-30T17:58:50;6.30;;;5.70;;
15408;SDS011;7803;48.130;13.788;2022-11-30T18:01:53;6.55;;;5.95;;
15408;SDS011;7803;48.130;13.788;2022-11-30T18:04:56;6.75;;;6.13;;
15408;SDS011;7803;48.130;13.788;2022-11-30T18:07:59;6.88;;;6.18;;
15408;SDS011;7803;48.130;13.788;2022-11-30T18:11:05;6.28;;;5.68;;
15408;SDS011;7803;48.130;13.788;2022-11-30T18:14:11;6.47;;;5.88;;
15408;SDS011;7803;48.130;13.788;2022-11-30T18:17:14;6.55;;;5.90;;
15408;SDS011;7803;48.130;13.788;2022-11-30T18:20:17;5.93;;;5.38;;
15408;SDS011;7803;48.130;13.788;2022-11-30T18:23:19;6.40;;;5.75;;
15408;SDS011;7803;48.130;13.788;2022-11-30T18:26:22;6.10;;;5.50;;
15408;SDS011;7803;48.130;13.788;2022-11-30T18:29:28;6.30;;;5.70;;
15408;SDS011;7803;48.130;13.788;2022-11-30T18:32:31;6.78;;;6.07;;
15408;SDS011;7803;48.130;13.788;2022-11-30T18:35:34;8.77;;;5.97;;
15408;SDS011;7803;48.130;13.788;2022-11-30T18:38:37;6.28;;;5.72;;
15408;SDS011;7803;48.130;13.788;2022-11-30T18:41:40;6.40;;;5.80;;